createdAt,value
2019-03-04T00:00:17.920Z,10.81
2019-03-04T00:02:45.204Z,10.75
2019-03-04T00:05:12.621Z,10.94
2019-03-04T00:07:40.985Z,11.06
2019-03-04T00:10:08.180Z,11.00
2019-03-04T00:12:35.166Z,10.88
2019-03-04T00:15:02.442Z,11.00
2019-03-04T00:17:29.368Z,11.06
2019-03-04T00:19:57.030Z,11.12
2019-03-04T00:22:23.956Z,11.12
2019-03-04T00:24:51.303Z,11.06
2019-03-04T00:27:18.276Z,10.94
2019-03-04T00:29:45.233Z,10.94
2019-03-04T00:32:12.214Z,11.12
2019-03-04T00:34:39.130Z,11.00
2019-03-04T00:37:06.045Z,11.00
2019-03-04T00:39:32.995Z,10.88
2019-03-04T00:41:59.951Z,10.94
2019-03-04T00:44:26.869Z,10.94
2019-03-04T00:46:53.833Z,10.69
2019-03-04T00:49:20.748Z,10.94
2019-03-04T00:51:47.687Z,11.06
2019-03-04T00:54:14.651Z,11.00
2019-03-04T00:56:41.634Z,10.94
2019-03-04T00:59:08.538Z,10.75
2019-03-04T01:01:35.468Z,10.81
2019-03-04T01:04:02.434Z,11.12
2019-03-04T01:06:29.408Z,10.94
2019-03-04T01:08:56.394Z,10.94
2019-03-04T01:11:23.370Z,10.75
2019-03-04T01:13:50.399Z,10.75
2019-03-04T01:16:17.328Z,10.94
2019-03-04T01:18:44.276Z,10.81
2019-03-04T01:21:11.210Z,10.81
2019-03-04T01:23:38.179Z,10.94
2019-03-04T01:26:05.133Z,11.00
2019-03-04T01:28:32.128Z,11.00
2019-03-04T01:30:59.074Z,11.12
2019-03-04T01:33:26.029Z,11.00
2019-03-04T01:35:52.964Z,10.94
2019-03-04T01:38:19.927Z,11.06
2019-03-04T01:40:46.857Z,10.94
2019-03-04T01:43:13.790Z,11.00
2019-03-04T01:45:40.731Z,10.75
2019-03-04T01:48:07.694Z,10.63
2019-03-04T01:50:34.652Z,10.81
2019-03-04T01:53:01.580Z,10.94
2019-03-04T01:55:28.512Z,10.88
2019-03-04T01:57:55.474Z,10.69
2019-03-04T02:00:22.417Z,10.63
2019-03-04T02:02:49.391Z,10.63
2019-03-04T02:05:16.383Z,10.94
2019-03-04T02:07:43.327Z,10.94
2019-03-04T02:10:12.389Z,10.63
2019-03-04T02:12:39.319Z,10.69
2019-03-04T02:15:07.569Z,10.63
2019-03-04T02:17:34.531Z,10.69
2019-03-04T02:20:01.445Z,10.56
2019-03-04T02:22:28.353Z,10.69
2019-03-04T02:24:55.349Z,10.63
2019-03-04T02:27:22.298Z,10.81
2019-03-04T02:29:49.262Z,10.81
2019-03-04T02:32:16.228Z,10.69
2019-03-04T02:34:43.178Z,10.56
2019-03-04T02:37:10.113Z,10.75
2019-03-04T02:39:37.079Z,10.75
2019-03-04T02:42:04.078Z,10.69
2019-03-04T02:44:30.969Z,10.63
2019-03-04T02:46:57.894Z,10.50
2019-03-04T02:49:24.834Z,10.50
2019-03-04T02:51:51.774Z,10.50
2019-03-04T02:54:18.697Z,10.56
2019-03-04T02:56:45.687Z,10.50
2019-03-04T02:59:12.653Z,10.56
2019-03-04T03:01:39.598Z,10.38
2019-03-04T03:04:06.582Z,10.56
2019-03-04T03:06:33.511Z,10.31
2019-03-04T03:09:00.490Z,10.56
2019-03-04T03:11:27.461Z,10.56
2019-03-04T03:13:54.406Z,10.50
2019-03-04T03:16:21.391Z,10.50
2019-03-04T03:18:48.330Z,10.25
2019-03-04T03:21:15.260Z,10.31
2019-03-04T03:23:42.185Z,10.56
2019-03-04T03:26:09.145Z,10.44
2019-03-04T03:28:36.091Z,10.56
2019-03-04T03:31:03.045Z,10.56
2019-03-04T03:33:29.993Z,10.38
2019-03-04T03:35:57.043Z,10.25
2019-03-04T03:38:23.983Z,10.50
2019-03-04T03:40:50.881Z,10.19
2019-03-04T03:43:17.800Z,10.69
2019-03-04T03:45:44.714Z,10.44
2019-03-04T03:48:11.607Z,10.38
2019-03-04T03:50:38.559Z,10.31
2019-03-04T03:53:05.502Z,10.31
2019-03-04T03:55:57.498Z,10.44
2019-03-04T03:58:25.494Z,10.50
2019-03-04T04:00:51.455Z,10.44
2019-03-04T04:03:18.428Z,10.38
2019-03-04T04:05:45.362Z,10.50
2019-03-04T04:08:12.399Z,10.56
2019-03-04T04:10:40.306Z,10.38
2019-03-04T04:13:07.209Z,10.63
2019-03-04T04:15:34.184Z,10.44
2019-03-04T04:18:01.128Z,10.38
2019-03-04T04:20:28.079Z,10.63
2019-03-04T04:22:55.040Z,10.69
2019-03-04T04:25:21.991Z,10.31
2019-03-04T04:27:48.921Z,10.19
2019-03-04T04:30:16.651Z,10.63
2019-03-04T04:32:43.633Z,10.44
2019-03-04T04:35:10.573Z,10.44
2019-03-04T04:37:37.527Z,10.25
2019-03-04T04:40:04.487Z,10.38
2019-03-04T04:42:32.218Z,10.63
2019-03-04T04:44:59.142Z,10.38
2019-03-04T04:47:26.151Z,10.44
2019-03-04T04:49:53.159Z,10.19
2019-03-04T04:52:20.087Z,10.38
2019-03-04T04:54:46.986Z,10.50
2019-03-04T04:57:13.990Z,10.31
2019-03-04T04:59:41.009Z,10.56
2019-03-04T05:02:07.943Z,10.31
2019-03-04T05:04:34.889Z,10.31
2019-03-04T05:07:01.834Z,10.19
2019-03-04T05:09:28.775Z,10.50
2019-03-04T05:11:55.805Z,10.44
2019-03-04T05:14:22.761Z,10.56
2019-03-04T05:16:49.743Z,10.19
2019-03-04T05:19:16.717Z,10.38
2019-03-04T05:21:43.698Z,10.50
2019-03-04T05:24:10.662Z,10.06
2019-03-04T05:26:37.589Z,10.13
2019-03-04T05:29:04.556Z,10.06
2019-03-04T05:31:31.474Z,10.13
2019-03-04T05:33:58.426Z,10.00
2019-03-04T05:36:25.366Z,10.13
2019-03-04T05:38:52.332Z,10.06
2019-03-04T05:41:19.293Z,10.31
2019-03-04T05:43:46.396Z,10.13
2019-03-04T05:46:15.275Z,10.06
2019-03-04T05:48:52.978Z,10.31
2019-03-04T05:51:20.157Z,10.13
2019-03-04T05:53:47.121Z,10.31
2019-03-04T05:56:17.035Z,10.19
2019-03-04T05:58:44.353Z,10.38
2019-03-04T06:01:16.999Z,10.25
2019-03-04T06:03:44.695Z,10.06
2019-03-04T06:06:12.262Z,10.06
2019-03-04T06:08:44.131Z,10.19
2019-03-04T06:14:07.965Z,10.13
2019-03-04T06:16:34.994Z,10.44
2019-03-04T06:19:02.096Z,10.25
2019-03-04T06:21:29.132Z,10.31
2019-03-04T06:23:56.242Z,10.69
2019-03-04T06:26:23.260Z,10.38
2019-03-04T06:28:50.298Z,10.38
2019-03-04T06:31:17.391Z,10.63
2019-03-04T06:33:44.388Z,10.50
2019-03-04T06:36:11.391Z,10.44
2019-03-04T06:38:38.388Z,10.31
2019-03-04T06:41:05.353Z,10.19
2019-03-04T06:43:32.330Z,10.56
2019-03-04T06:45:59.349Z,10.38
2019-03-04T06:48:26.331Z,10.31
2019-03-04T06:50:54.117Z,10.44
2019-03-04T06:53:40.268Z,10.25
2019-03-04T06:56:46.661Z,10.38
2019-03-04T07:00:21.914Z,10.44
2019-03-04T07:02:48.930Z,10.63
2019-03-04T07:05:49.335Z,10.38
2019-03-04T07:09:27.070Z,10.50
2019-03-04T07:11:54.160Z,10.44
2019-03-04T07:14:21.414Z,10.50
2019-03-04T07:16:49.624Z,10.25
2019-03-04T07:19:18.980Z,10.44
2019-03-04T07:21:46.176Z,10.44
2019-03-04T07:24:13.206Z,10.81
2019-03-04T07:26:40.222Z,10.44
2019-03-04T07:29:07.293Z,10.63
2019-03-04T07:31:34.445Z,10.81
2019-03-04T07:34:01.515Z,10.81
2019-03-04T07:36:29.343Z,10.94
2019-03-04T07:38:58.203Z,10.81
2019-03-04T07:41:27.482Z,11.00
2019-03-04T07:43:54.576Z,10.94
2019-03-04T07:46:21.575Z,10.75
2019-03-04T07:48:48.696Z,10.81
2019-03-04T07:51:15.762Z,10.81
2019-03-04T07:53:46.253Z,11.06
2019-03-04T07:56:10.114Z,10.88
2019-03-04T07:58:38.326Z,11.19
2019-03-04T08:01:05.388Z,10.88
2019-03-04T08:03:32.806Z,11.12
2019-03-04T08:05:59.928Z,10.94
2019-03-04T08:08:26.965Z,11.19
2019-03-04T08:12:10.900Z,11.12
2019-03-04T08:14:38.603Z,11.12
2019-03-04T08:17:05.508Z,11.06
2019-03-04T08:19:33.289Z,11.19
2019-03-04T08:22:00.379Z,10.94
2019-03-04T08:24:27.469Z,11.06
2019-03-04T08:26:54.394Z,11.19
2019-03-04T08:29:21.313Z,10.94
2019-03-04T08:31:48.291Z,11.25
2019-03-04T08:34:15.430Z,11.31
2019-03-04T08:36:42.487Z,11.12
2019-03-04T08:39:09.501Z,11.19
2019-03-04T08:41:36.545Z,11.75
2019-03-04T08:44:03.605Z,11.56
2019-03-04T08:46:30.974Z,11.63
2019-03-04T08:48:57.998Z,11.38
2019-03-04T08:51:24.955Z,11.56
2019-03-04T08:53:51.913Z,11.75
2019-03-04T08:56:18.925Z,11.88
2019-03-04T08:58:45.938Z,12.00
2019-03-04T09:01:13.181Z,11.88
2019-03-04T09:03:40.302Z,11.81
2019-03-04T09:06:07.291Z,11.88
2019-03-04T09:08:34.277Z,11.88
2019-03-04T09:11:01.253Z,11.88
2019-03-04T09:13:28.289Z,11.75
2019-03-04T09:15:58.818Z,12.19
2019-03-04T09:18:25.947Z,11.88
2019-03-04T09:20:52.956Z,11.94
2019-03-04T09:23:20.055Z,12.00
2019-03-04T09:25:51.248Z,12.31
2019-03-04T09:28:18.355Z,11.94
2019-03-04T09:35:39.921Z,12.25
2019-03-04T09:38:07.049Z,12.19
2019-03-04T09:40:34.271Z,12.31
2019-03-04T09:43:01.463Z,12.37
2019-03-04T09:45:38.041Z,12.31
2019-03-04T09:47:55.775Z,12.25
2019-03-04T09:50:22.881Z,12.19
2019-03-04T09:52:50.221Z,12.25
2019-03-04T09:55:17.423Z,12.56
2019-03-04T09:57:44.658Z,12.50
2019-03-04T10:00:26.027Z,12.44
2019-03-04T10:02:53.105Z,12.37
2019-03-04T10:05:31.938Z,12.37
2019-03-04T10:08:05.610Z,12.44
2019-03-04T10:10:42.232Z,12.94
2019-03-04T10:13:20.147Z,12.81
2019-03-04T10:16:18.713Z,12.75
2019-03-04T10:18:57.302Z,12.94
2019-03-04T10:21:50.089Z,12.88
2019-03-04T10:26:32.463Z,12.88
2019-03-04T10:29:08.221Z,13.19
2019-03-04T10:31:47.323Z,13.19
2019-03-04T10:36:40.768Z,13.25
2019-03-04T10:39:47.811Z,13.50
2019-03-04T10:44:37.556Z,13.75
2019-03-04T10:46:59.189Z,13.69
2019-03-04T10:49:27.852Z,13.75
2019-03-04T10:51:54.922Z,13.81
2019-03-04T10:54:22.117Z,14.00
2019-03-04T10:56:50.069Z,14.13
2019-03-04T10:59:17.119Z,14.06
2019-03-04T11:01:44.193Z,14.25
2019-03-04T11:04:11.194Z,14.06
2019-03-04T11:06:38.184Z,14.25
2019-03-04T11:09:06.653Z,14.25
2019-03-04T11:11:33.730Z,14.31
2019-03-04T11:14:00.694Z,14.31
2019-03-04T11:16:27.712Z,14.56
2019-03-04T11:18:54.679Z,14.44
2019-03-04T11:21:21.767Z,14.69
2019-03-04T11:23:48.830Z,14.50
2019-03-04T11:26:15.831Z,12.81
2019-03-04T11:28:42.778Z,11.94
2019-03-04T11:31:09.787Z,11.25
2019-03-04T11:33:37.766Z,10.81
2019-03-04T11:36:04.862Z,10.44
2019-03-04T11:38:35.075Z,10.25
2019-03-04T11:41:02.111Z,9.94
2019-03-04T11:43:29.302Z,9.81
2019-03-04T11:45:57.293Z,9.81
2019-03-04T11:48:24.290Z,9.75
2019-03-04T11:50:51.319Z,9.56
2019-03-04T11:53:18.368Z,9.50
2019-03-04T11:55:45.485Z,9.56
2019-03-04T11:58:12.455Z,9.31
2019-03-04T12:00:42.071Z,9.38
2019-03-04T12:03:09.055Z,9.25
2019-03-04T12:05:36.044Z,9.19
2019-03-04T12:08:03.335Z,9.38
2019-03-04T12:10:30.293Z,9.44
2019-03-04T12:12:57.361Z,9.25
2019-03-04T12:15:24.375Z,9.56
2019-03-04T12:17:51.502Z,9.44
2019-03-04T12:20:18.577Z,9.50
2019-03-04T12:22:45.651Z,9.75
2019-03-04T12:25:12.814Z,9.88
2019-03-04T12:27:39.936Z,9.88
2019-03-04T12:30:11.015Z,10.31
2019-03-04T12:32:38.160Z,10.31
2019-03-04T12:35:08.514Z,10.13
2019-03-04T12:37:35.511Z,10.44
2019-03-04T12:40:02.634Z,10.19
2019-03-04T12:42:29.599Z,10.44
2019-03-04T12:44:56.859Z,10.44
2019-03-04T12:47:23.790Z,10.44
2019-03-04T12:49:50.773Z,10.69
2019-03-04T12:52:18.031Z,10.81
2019-03-04T12:54:45.082Z,10.88
2019-03-04T12:57:12.107Z,10.81
2019-03-04T12:59:39.023Z,10.94
2019-03-04T13:02:06.043Z,11.00
2019-03-04T13:04:33.037Z,11.19
2019-03-04T13:07:00.086Z,11.12
2019-03-04T13:09:27.089Z,11.12
2019-03-04T13:11:54.131Z,11.12
2019-03-04T13:14:21.050Z,11.25
2019-03-04T13:16:48.904Z,11.12
2019-03-04T13:19:17.342Z,11.19
2019-03-04T13:21:42.850Z,11.38
2019-03-04T13:24:10.936Z,11.63
2019-03-04T13:26:37.958Z,11.50
2019-03-04T13:29:05.083Z,11.63
2019-03-04T13:31:31.918Z,11.69
2019-03-04T13:33:58.931Z,11.75
2019-03-04T13:36:25.897Z,11.94
2019-03-04T13:38:52.867Z,12.00
2019-03-04T13:41:19.861Z,12.06
2019-03-04T13:43:46.875Z,12.19
2019-03-04T13:46:13.877Z,12.31
2019-03-04T13:48:41.544Z,12.37
2019-03-04T13:51:08.536Z,12.50
2019-03-04T13:53:35.508Z,12.44
2019-03-04T13:56:03.486Z,12.50
2019-03-04T13:58:30.484Z,12.44
2019-03-04T14:00:57.539Z,12.88
2019-03-04T14:03:24.512Z,12.63
2019-03-04T14:05:51.484Z,12.56
2019-03-04T14:08:18.520Z,12.63
2019-03-04T14:10:45.515Z,12.56
2019-03-04T14:13:12.524Z,12.88
2019-03-04T14:15:39.534Z,12.88
2019-03-04T14:18:06.531Z,12.63
2019-03-04T14:20:35.037Z,12.88
2019-03-04T14:23:07.396Z,12.81
2019-03-04T14:25:34.395Z,12.94
2019-03-04T14:28:01.373Z,13.00
2019-03-04T14:30:28.558Z,12.81
2019-03-04T14:32:55.612Z,13.00
2019-03-04T14:35:22.790Z,13.06
2019-03-04T14:37:49.745Z,13.25
2019-03-04T14:40:16.908Z,13.13
2019-03-04T14:42:44.070Z,13.13
2019-03-04T14:45:13.611Z,13.19
2019-03-04T14:47:40.624Z,13.19
2019-03-04T14:50:10.365Z,13.44
2019-03-04T14:52:37.547Z,13.38
2019-03-04T14:55:06.486Z,13.38
2019-03-04T14:57:33.500Z,13.31
2019-03-04T15:00:00.575Z,13.06
2019-03-04T15:02:28.411Z,13.19
2019-03-04T15:04:55.541Z,13.44
2019-03-04T15:07:22.512Z,13.31
2019-03-04T15:09:58.203Z,13.25
2019-03-04T15:12:25.337Z,13.19
2019-03-04T15:14:52.329Z,13.06
2019-03-04T15:17:20.691Z,13.25
2019-03-04T15:19:47.672Z,13.13
2019-03-04T15:22:14.699Z,13.31
2019-03-04T15:24:41.727Z,13.19
2019-03-04T15:27:08.773Z,13.31
2019-03-04T15:29:35.802Z,13.31
2019-03-04T15:32:02.808Z,13.13
2019-03-04T15:34:29.785Z,13.38
2019-03-04T15:36:56.837Z,13.44
2019-03-04T15:39:24.016Z,13.19
2019-03-04T15:41:51.154Z,13.25
2019-03-04T15:44:18.658Z,12.94
2019-03-04T15:46:45.699Z,13.25
2019-03-04T15:49:12.639Z,12.94
2019-03-04T15:51:39.606Z,13.25
2019-03-04T15:54:06.661Z,13.00
2019-03-04T15:56:35.537Z,13.06
2019-03-04T15:59:01.559Z,13.19
2019-03-04T16:01:28.537Z,12.94
2019-03-04T16:03:55.995Z,13.06
2019-03-04T16:06:23.017Z,13.00
2019-03-04T16:08:49.957Z,12.88
2019-03-04T16:11:17.030Z,11.12
2019-03-04T16:13:52.582Z,9.88
2019-03-04T16:16:13.862Z,9.13
2019-03-04T16:18:40.954Z,8.69
2019-03-04T16:21:08.179Z,8.38
2019-03-04T16:23:35.332Z,7.94
2019-03-04T16:26:06.822Z,8.06
2019-03-04T16:28:34.508Z,7.94
2019-03-04T16:31:01.714Z,8.00
2019-03-04T16:33:28.717Z,7.87
2019-03-04T16:35:57.825Z,7.87
2019-03-04T16:38:25.079Z,7.87
2019-03-04T16:40:52.264Z,7.62
2019-03-04T16:43:19.631Z,7.81
2019-03-04T16:45:46.736Z,7.69
2019-03-04T16:48:14.871Z,7.87
2019-03-04T16:50:42.046Z,7.81
2019-03-04T16:53:09.950Z,7.81
2019-03-04T17:00:53.689Z,7.75
2019-03-04T17:03:22.348Z,7.75
2019-03-04T17:05:49.462Z,7.81
2019-03-04T17:08:16.476Z,7.62
2019-03-04T17:10:44.087Z,7.62
2019-03-04T17:13:11.124Z,7.62
2019-03-04T17:15:38.123Z,7.62
2019-03-04T17:18:05.174Z,7.56
2019-03-04T17:20:32.140Z,7.62
2019-03-04T17:23:00.850Z,7.62
2019-03-04T17:25:27.825Z,7.94
2019-03-04T17:27:55.751Z,7.94
2019-03-04T17:30:22.804Z,7.94
2019-03-04T17:32:49.807Z,7.75
2019-03-04T17:35:16.894Z,7.81
2019-03-04T17:37:43.848Z,7.81
2019-03-04T17:40:11.470Z,7.81
2019-03-04T17:42:38.508Z,7.81
2019-03-04T17:45:06.552Z,7.81
2019-03-04T17:47:33.531Z,7.94
2019-03-04T17:50:00.613Z,7.94
2019-03-04T17:52:28.438Z,7.94
2019-03-04T17:54:55.472Z,7.94
2019-03-04T17:57:22.544Z,7.69
2019-03-04T17:59:50.799Z,7.62
2019-03-04T18:02:18.071Z,8.06
2019-03-04T18:04:45.178Z,7.94
2019-03-04T18:07:12.969Z,7.94
2019-03-04T18:09:40.211Z,7.56
2019-03-04T18:12:07.285Z,7.56
2019-03-04T18:14:34.250Z,7.69
2019-03-04T18:17:01.297Z,7.56
2019-03-04T18:19:28.879Z,7.31
2019-03-04T18:21:55.914Z,7.69
2019-03-04T18:24:23.524Z,7.69
2019-03-04T18:27:00.703Z,7.56
2019-03-04T18:29:46.767Z,7.62
2019-03-04T18:32:27.178Z,7.81
2019-03-04T18:35:22.409Z,7.81
2019-03-04T18:38:06.012Z,7.69
2019-03-04T18:41:00.206Z,7.56
2019-03-04T18:43:38.882Z,7.56
2019-03-04T18:46:22.806Z,7.56
2019-03-04T18:48:52.195Z,7.62
2019-03-04T18:51:19.194Z,7.69
2019-03-04T18:53:46.167Z,7.62
2019-03-04T18:56:21.751Z,7.62
2019-03-04T18:58:40.271Z,7.62
2019-03-04T19:01:07.339Z,7.56
2019-03-04T19:03:34.835Z,7.69
2019-03-04T19:06:01.840Z,7.87
2019-03-04T19:08:29.128Z,7.87
2019-03-04T19:10:56.192Z,7.87
2019-03-04T19:13:23.144Z,8.00
2019-03-04T19:15:50.938Z,7.75
2019-03-04T19:18:17.950Z,7.81
2019-03-04T19:20:44.934Z,8.06
2019-03-04T19:23:11.974Z,8.06
2019-03-04T19:25:38.918Z,7.94
2019-03-04T19:28:05.892Z,8.25
2019-03-04T19:30:32.870Z,8.25
2019-03-04T19:32:59.950Z,8.25
2019-03-04T19:35:26.907Z,8.38
2019-03-04T19:37:53.907Z,8.31
2019-03-04T19:40:20.873Z,8.38
2019-03-04T19:42:47.883Z,8.44
2019-03-04T19:45:14.868Z,8.44
2019-03-04T19:47:41.899Z,8.56
2019-03-04T19:50:09.523Z,8.38
2019-03-04T19:52:36.608Z,8.38
2019-03-04T19:55:05.247Z,8.44
2019-03-04T19:57:32.215Z,8.56
2019-03-04T19:59:59.268Z,8.38
2019-03-04T20:07:20.944Z,8.25
2019-03-04T20:09:47.980Z,8.31
2019-03-04T20:12:14.927Z,8.38
2019-03-04T20:14:42.486Z,8.63
2019-03-04T20:17:10.965Z,8.69
2019-03-04T20:19:38.116Z,8.56
2019-03-04T20:22:06.182Z,8.50
2019-03-04T20:24:34.225Z,8.50
2019-03-04T20:27:01.196Z,8.81
2019-03-04T20:29:28.275Z,8.63
2019-03-04T20:31:55.869Z,8.75
2019-03-04T20:34:22.793Z,8.75
2019-03-04T20:36:49.884Z,8.75
2019-03-04T20:39:16.898Z,8.69
2019-03-04T20:41:43.847Z,8.69
2019-03-04T20:44:11.509Z,8.63
2019-03-04T20:46:38.498Z,8.75
2019-03-04T20:49:05.553Z,8.56
2019-03-04T20:51:32.493Z,8.63
2019-03-04T20:53:59.496Z,8.56
2019-03-04T20:56:26.436Z,8.56
2019-03-04T20:58:53.398Z,8.69
2019-03-04T21:01:20.428Z,8.63
2019-03-04T21:03:47.584Z,8.69
2019-03-04T21:06:15.161Z,8.94
2019-03-04T21:08:42.678Z,8.56
2019-03-04T21:11:09.791Z,8.81
2019-03-04T21:13:36.899Z,8.75
2019-03-04T21:16:03.936Z,8.69
2019-03-04T21:18:31.541Z,8.69
2019-03-04T21:20:58.551Z,8.56
2019-03-04T21:23:25.487Z,8.75
2019-03-04T21:25:58.753Z,8.75
2019-03-04T21:28:35.410Z,8.63
2019-03-04T21:31:15.224Z,8.38
2019-03-04T21:33:53.770Z,8.50
2019-03-04T21:36:34.608Z,8.56
2019-03-04T21:39:02.855Z,8.50
2019-03-04T21:41:35.175Z,8.44
2019-03-04T21:44:22.465Z,8.25
2019-03-04T21:47:08.674Z,8.19
2019-03-04T21:49:40.034Z,8.44
2019-03-04T21:52:32.960Z,8.13
2019-03-04T21:55:01.088Z,8.13
2019-03-04T21:57:32.941Z,8.31
2019-03-04T22:00:00.911Z,8.38
2019-03-04T22:02:32.986Z,8.13
2019-03-04T22:05:03.051Z,8.13
2019-03-04T22:07:30.093Z,8.19
2019-03-04T22:09:57.071Z,8.31
2019-03-04T22:12:23.997Z,8.31
2019-03-04T22:14:51.017Z,7.81
2019-03-04T22:17:17.991Z,7.94
2019-03-04T22:19:44.989Z,8.25
2019-03-04T22:22:11.968Z,8.06
2019-03-04T22:24:38.942Z,8.06
2019-03-04T22:27:05.960Z,8.06
2019-03-04T22:29:33.023Z,8.00
2019-03-04T22:32:00.025Z,8.00
2019-03-04T22:34:27.110Z,8.13
2019-03-04T22:36:54.090Z,8.06
2019-03-04T22:39:21.074Z,8.06
2019-03-04T22:41:48.028Z,7.81
2019-03-04T22:44:15.025Z,8.00
2019-03-04T22:46:41.954Z,8.00
2019-03-04T22:49:08.995Z,7.94
2019-03-04T22:51:35.895Z,7.94
2019-03-04T22:54:02.974Z,7.75
2019-03-04T22:56:29.965Z,7.94
2019-03-04T22:58:57.003Z,7.94
2019-03-04T23:01:36.642Z,8.06
2019-03-04T23:04:12.480Z,8.06
2019-03-04T23:06:43.584Z,8.06
2019-03-04T23:09:11.521Z,7.81
2019-03-04T23:11:41.021Z,7.81
2019-03-04T23:14:12.794Z,7.87
2019-03-04T23:16:39.737Z,7.87
2019-03-04T23:19:06.782Z,7.81
2019-03-04T23:21:33.788Z,7.81
2019-03-04T23:24:00.775Z,7.81
2019-03-04T23:26:27.738Z,7.75
2019-03-04T23:28:54.620Z,7.75
2019-03-04T23:31:21.550Z,7.87
2019-03-04T23:33:48.515Z,7.56
2019-03-04T23:36:15.443Z,7.87
2019-03-04T23:38:42.397Z,7.81
2019-03-04T23:41:09.340Z,7.81
2019-03-04T23:43:36.281Z,7.69
2019-03-04T23:46:03.202Z,7.75
2019-03-04T23:48:30.167Z,7.62
2019-03-04T23:50:57.212Z,7.94
2019-03-04T23:53:24.209Z,7.87
2019-03-04T23:55:51.162Z,7.87
2019-03-04T23:58:18.111Z,7.87
